sensor_id;sensor_type;location;lat;lon;timestamp;temperature;humidity
50758;DHT22;36732;47.980;11.652;2023-03-02T00:01:33;5.10;60.40
50758;DHT22;36732;47.980;11.652;2023-03-02T00:04:07;5.10;60.40
50758;DHT22;36732;47.980;11.652;2023-03-02T00:06:35;5.00;60.40
50758;DHT22;36732;47.980;11.652;2023-03-02T00:09:03;5.00;61.00
50758;DHT22;36732;47.980;11.652;2023-03-02T00:11:31;5.00;60.50
50758;DHT22;36732;47.980;11.652;2023-03-02T00:13:58;5.00;60.60
50758;DHT22;36732;47.980;11.652;2023-03-02T00:16:24;5.00;60.60
50758;DHT22;36732;47.980;11.652;2023-03-02T00:18:50;5.00;60.60
50758;DHT22;36732;47.980;11.652;2023-03-02T00:21:16;5.00;60.60
50758;DHT22;36732;47.980;11.652;2023-03-02T00:23:42;5.00;60.70
50758;DHT22;36732;47.980;11.652;2023-03-02T00:26:08;5.00;60.70
50758;DHT22;36732;47.980;11.652;2023-03-02T00:28:33;5.00;60.70
50758;DHT22;36732;47.980;11.652;2023-03-02T00:31:03;5.10;60.80
50758;DHT22;36732;47.980;11.652;2023-03-02T00:33:29;5.00;60.80
50758;DHT22;36732;47.980;11.652;2023-03-02T00:35:55;5.00;60.60
50758;DHT22;36732;47.980;11.652;2023-03-02T00:38:21;5.10;60.70
50758;DHT22;36732;47.980;11.652;2023-03-02T00:40:47;5.10;60.70
50758;DHT22;36732;47.980;11.652;2023-03-02T00:43:14;5.10;60.70
50758;DHT22;36732;47.980;11.652;2023-03-02T00:45:40;5.10;60.70
50758;DHT22;36732;47.980;11.652;2023-03-02T00:48:06;5.00;60.70
50758;DHT22;36732;47.980;11.652;2023-03-02T00:50:32;5.00;60.70
50758;DHT22;36732;47.980;11.652;2023-03-02T00:52:57;5.00;60.80
50758;DHT22;36732;47.980;11.652;2023-03-02T00:55:23;5.00;60.80
50758;DHT22;36732;47.980;11.652;2023-03-02T00:57:52;5.00;60.80
50758;DHT22;36732;47.980;11.652;2023-03-02T01:00:21;5.00;61.00
50758;DHT22;36732;47.980;11.652;2023-03-02T01:02:48;5.00;60.90
50758;DHT22;36732;47.980;11.652;2023-03-02T01:05:15;5.00;61.00
50758;DHT22;36732;47.980;11.652;2023-03-02T01:07:41;5.00;61.00
50758;DHT22;36732;47.980;11.652;2023-03-02T01:10:08;4.90;60.90
50758;DHT22;36732;47.980;11.652;2023-03-02T01:12:34;4.90;61.00
50758;DHT22;36732;47.980;11.652;2023-03-02T01:15:00;4.90;61.10
50758;DHT22;36732;47.980;11.652;2023-03-02T01:17:26;4.90;61.10
50758;DHT22;36732;47.980;11.652;2023-03-02T01:19:53;4.90;61.20
50758;DHT22;36732;47.980;11.652;2023-03-02T01:22:19;4.90;61.20
50758;DHT22;36732;47.980;11.652;2023-03-02T01:24:45;4.90;61.10
50758;DHT22;36732;47.980;11.652;2023-03-02T01:27:11;4.90;61.10
50758;DHT22;36732;47.980;11.652;2023-03-02T01:29:37;4.90;61.80
50758;DHT22;36732;47.980;11.652;2023-03-02T01:32:03;4.90;61.10
50758;DHT22;36732;47.980;11.652;2023-03-02T01:34:30;4.90;61.20
50758;DHT22;36732;47.980;11.652;2023-03-02T01:36:56;4.90;61.20
50758;DHT22;36732;47.980;11.652;2023-03-02T01:39:21;4.90;61.30
50758;DHT22;36732;47.980;11.652;2023-03-02T01:41:50;4.90;61.30
50758;DHT22;36732;47.980;11.652;2023-03-02T01:44:37;4.90;61.30
50758;DHT22;36732;47.980;11.652;2023-03-02T01:47:26;4.90;61.60
50758;DHT22;36732;47.980;11.652;2023-03-02T01:50:00;4.90;61.60
50758;DHT22;36732;47.980;11.652;2023-03-02T01:52:31;4.90;61.30
50758;DHT22;36732;47.980;11.652;2023-03-02T01:55:01;4.90;61.40
50758;DHT22;36732;47.980;11.652;2023-03-02T01:57:32;4.90;61.40
50758;DHT22;36732;47.980;11.652;2023-03-02T02:00:03;4.90;61.50
50758;DHT22;36732;47.980;11.652;2023-03-02T02:02:35;4.80;61.40
50758;DHT22;36732;47.980;11.652;2023-03-02T02:05:02;4.90;61.50
50758;DHT22;36732;47.980;11.652;2023-03-02T02:07:28;4.90;61.50
50758;DHT22;36732;47.980;11.652;2023-03-02T02:09:54;4.90;61.60
50758;DHT22;36732;47.980;11.652;2023-03-02T02:12:22;4.90;61.60
50758;DHT22;36732;47.980;11.652;2023-03-02T02:14:49;4.90;61.70
50758;DHT22;36732;47.980;11.652;2023-03-02T02:17:16;4.90;61.60
50758;DHT22;36732;47.980;11.652;2023-03-02T02:28:24;5.00;61.50
50758;DHT22;36732;47.980;11.652;2023-03-02T02:31:03;5.00;61.50
50758;DHT22;36732;47.980;11.652;2023-03-02T02:33:31;5.00;61.50
50758;DHT22;36732;47.980;11.652;2023-03-02T02:36:03;5.00;61.40
50758;DHT22;36732;47.980;11.652;2023-03-02T02:38:33;5.00;62.10
50758;DHT22;36732;47.980;11.652;2023-03-02T02:41:02;5.00;61.40
50758;DHT22;36732;47.980;11.652;2023-03-02T02:43:30;5.00;61.50
50758;DHT22;36732;47.980;11.652;2023-03-02T02:45:57;5.00;61.50
50758;DHT22;36732;47.980;11.652;2023-03-02T02:48:25;5.00;61.50
50758;DHT22;36732;47.980;11.652;2023-03-02T02:50:56;5.00;61.60
50758;DHT22;36732;47.980;11.652;2023-03-02T02:53:52;5.00;61.60
50758;DHT22;36732;47.980;11.652;2023-03-02T02:56:27;4.90;61.80
50758;DHT22;36732;47.980;11.652;2023-03-02T02:58:57;5.00;61.80
50758;DHT22;36732;47.980;11.652;2023-03-02T03:01:25;5.00;61.70
50758;DHT22;36732;47.980;11.652;2023-03-02T03:03:55;5.00;61.80
50758;DHT22;36732;47.980;11.652;2023-03-02T03:06:27;5.00;61.90
50758;DHT22;36732;47.980;11.652;2023-03-02T03:09:07;5.00;61.80
50758;DHT22;36732;47.980;11.652;2023-03-02T03:11:37;5.10;61.80
50758;DHT22;36732;47.980;11.652;2023-03-02T03:14:09;5.10;61.80
50758;DHT22;36732;47.980;11.652;2023-03-02T03:16:38;5.10;61.80
50758;DHT22;36732;47.980;11.652;2023-03-02T03:21:52;5.10;61.80
50758;DHT22;36732;47.980;11.652;2023-03-02T03:24:20;5.10;61.60
50758;DHT22;36732;47.980;11.652;2023-03-02T03:26:46;5.10;61.60
50758;DHT22;36732;47.980;11.652;2023-03-02T03:29:13;5.20;61.70
50758;DHT22;36732;47.980;11.652;2023-03-02T03:31:39;5.20;61.60
50758;DHT22;36732;47.980;11.652;2023-03-02T03:34:05;5.20;61.60
50758;DHT22;36732;47.980;11.652;2023-03-02T03:36:32;5.20;62.30
50758;DHT22;36732;47.980;11.652;2023-03-02T03:38:58;5.20;61.60
50758;DHT22;36732;47.980;11.652;2023-03-02T03:41:25;5.10;61.40
50758;DHT22;36732;47.980;11.652;2023-03-02T03:43:51;5.10;61.30
50758;DHT22;36732;47.980;11.652;2023-03-02T03:46:17;5.10;61.40
50758;DHT22;36732;47.980;11.652;2023-03-02T03:48:43;5.10;61.40
50758;DHT22;36732;47.980;11.652;2023-03-02T03:51:09;5.10;61.50
50758;DHT22;36732;47.980;11.652;2023-03-02T03:53:35;5.00;61.40
50758;DHT22;36732;47.980;11.652;2023-03-02T03:56:00;5.00;61.50
50758;DHT22;36732;47.980;11.652;2023-03-02T03:58:29;5.00;61.60
50758;DHT22;36732;47.980;11.652;2023-03-02T04:00:55;5.00;61.70
50758;DHT22;36732;47.980;11.652;2023-03-02T04:03:22;5.00;61.70
50758;DHT22;36732;47.980;11.652;2023-03-02T04:05:49;5.00;61.80
50758;DHT22;36732;47.980;11.652;2023-03-02T04:08:14;5.00;61.80
50758;DHT22;36732;47.980;11.652;2023-03-02T04:10:40;5.00;61.70
50758;DHT22;36732;47.980;11.652;2023-03-02T04:13:06;4.90;61.70
50758;DHT22;36732;47.980;11.652;2023-03-02T04:15:32;4.90;61.60
50758;DHT22;36732;47.980;11.652;2023-03-02T04:17:59;4.90;61.70
50758;DHT22;36732;47.980;11.652;2023-03-02T04:20:25;4.90;61.70
50758;DHT22;36732;47.980;11.652;2023-03-02T04:22:53;4.90;61.70
50758;DHT22;36732;47.980;11.652;2023-03-02T04:25:22;4.90;61.70
50758;DHT22;36732;47.980;11.652;2023-03-02T04:27:49;4.90;61.70
50758;DHT22;36732;47.980;11.652;2023-03-02T04:30:19;4.90;61.80
50758;DHT22;36732;47.980;11.652;2023-03-02T04:32:47;4.90;61.80
50758;DHT22;36732;47.980;11.652;2023-03-02T04:35:13;4.90;61.90
50758;DHT22;36732;47.980;11.652;2023-03-02T04:37:40;4.90;62.00
50758;DHT22;36732;47.980;11.652;2023-03-02T04:40:07;4.90;61.90
50758;DHT22;36732;47.980;11.652;2023-03-02T04:42:34;5.00;61.90
50758;DHT22;36732;47.980;11.652;2023-03-02T04:45:00;5.00;61.80
50758;DHT22;36732;47.980;11.652;2023-03-02T04:47:26;5.00;61.70
50758;DHT22;36732;47.980;11.652;2023-03-02T04:49:52;5.00;61.60
50758;DHT22;36732;47.980;11.652;2023-03-02T04:52:21;5.00;61.50
50758;DHT22;36732;47.980;11.652;2023-03-02T04:54:47;5.00;61.50
50758;DHT22;36732;47.980;11.652;2023-03-02T04:57:13;4.90;61.30
50758;DHT22;36732;47.980;11.652;2023-03-02T04:59:39;4.90;61.40
50758;DHT22;36732;47.980;11.652;2023-03-02T05:02:05;4.90;61.40
50758;DHT22;36732;47.980;11.652;2023-03-02T05:04:31;4.90;61.50
50758;DHT22;36732;47.980;11.652;2023-03-02T05:06:57;4.90;61.50
50758;DHT22;36732;47.980;11.652;2023-03-02T05:09:24;4.90;61.50
50758;DHT22;36732;47.980;11.652;2023-03-02T05:11:56;4.90;61.60
50758;DHT22;36732;47.980;11.652;2023-03-02T05:14:24;4.90;61.80
50758;DHT22;36732;47.980;11.652;2023-03-02T05:16:50;4.90;61.70
50758;DHT22;36732;47.980;11.652;2023-03-02T05:19:17;4.90;61.80
50758;DHT22;36732;47.980;11.652;2023-03-02T05:21:43;4.90;61.80
50758;DHT22;36732;47.980;11.652;2023-03-02T05:24:10;4.90;61.80
50758;DHT22;36732;47.980;11.652;2023-03-02T05:26:36;4.90;61.80
50758;DHT22;36732;47.980;11.652;2023-03-02T05:29:03;4.90;61.80
50758;DHT22;36732;47.980;11.652;2023-03-02T05:31:38;4.90;61.60
50758;DHT22;36732;47.980;11.652;2023-03-02T05:34:09;4.90;61.60
50758;DHT22;36732;47.980;11.652;2023-03-02T05:36:36;5.00;61.60
50758;DHT22;36732;47.980;11.652;2023-03-02T05:39:03;4.90;61.60
50758;DHT22;36732;47.980;11.652;2023-03-02T05:41:29;4.90;61.80
50758;DHT22;36732;47.980;11.652;2023-03-02T05:43:55;4.90;61.90
50758;DHT22;36732;47.980;11.652;2023-03-02T05:46:21;4.90;61.90
50758;DHT22;36732;47.980;11.652;2023-03-02T05:48:47;4.90;62.00
50758;DHT22;36732;47.980;11.652;2023-03-02T05:51:13;4.90;62.00
50758;DHT22;36732;47.980;11.652;2023-03-02T05:53:39;5.00;62.00
50758;DHT22;36732;47.980;11.652;2023-03-02T05:56:06;5.00;62.60
50758;DHT22;36732;47.980;11.652;2023-03-02T05:58:32;5.00;62.00
50758;DHT22;36732;47.980;11.652;2023-03-02T06:00:58;5.00;62.00
50758;DHT22;36732;47.980;11.652;2023-03-02T06:03:24;5.00;61.90
50758;DHT22;36732;47.980;11.652;2023-03-02T06:05:49;5.00;61.90
50758;DHT22;36732;47.980;11.652;2023-03-02T06:08:18;5.00;61.90
50758;DHT22;36732;47.980;11.652;2023-03-02T06:10:45;5.00;61.90
50758;DHT22;36732;47.980;11.652;2023-03-02T06:13:11;5.00;61.90
50758;DHT22;36732;47.980;11.652;2023-03-02T06:15:37;5.10;61.90
50758;DHT22;36732;47.980;11.652;2023-03-02T06:18:05;5.10;61.90
50758;DHT22;36732;47.980;11.652;2023-03-02T06:20:31;5.10;62.00
50758;DHT22;36732;47.980;11.652;2023-03-02T06:22:56;5.10;61.90
50758;DHT22;36732;47.980;11.652;2023-03-02T06:25:23;5.10;61.90
50758;DHT22;36732;47.980;11.652;2023-03-02T06:27:50;5.10;61.90
50758;DHT22;36732;47.980;11.652;2023-03-02T06:30:22;5.10;61.90
50758;DHT22;36732;47.980;11.652;2023-03-02T06:32:49;5.10;62.00
50758;DHT22;36732;47.980;11.652;2023-03-02T06:35:14;5.10;62.00
50758;DHT22;36732;47.980;11.652;2023-03-02T06:37:41;5.10;62.00
50758;DHT22;36732;47.980;11.652;2023-03-02T06:40:07;5.10;62.10
50758;DHT22;36732;47.980;11.652;2023-03-02T06:42:38;5.10;62.20
50758;DHT22;36732;47.980;11.652;2023-03-02T06:45:05;5.10;62.20
50758;DHT22;36732;47.980;11.652;2023-03-02T06:47:31;5.10;62.20
50758;DHT22;36732;47.980;11.652;2023-03-02T06:49:58;5.10;62.30
50758;DHT22;36732;47.980;11.652;2023-03-02T06:52:24;5.10;62.30
50758;DHT22;36732;47.980;11.652;2023-03-02T06:54:51;5.20;62.40
50758;DHT22;36732;47.980;11.652;2023-03-02T06:57:17;5.10;62.30
50758;DHT22;36732;47.980;11.652;2023-03-02T06:59:43;5.20;62.40
50758;DHT22;36732;47.980;11.652;2023-03-02T07:02:10;5.20;62.50
50758;DHT22;36732;47.980;11.652;2023-03-02T07:04:36;5.20;62.60
50758;DHT22;36732;47.980;11.652;2023-03-02T07:07:02;5.20;62.50
50758;DHT22;36732;47.980;11.652;2023-03-02T07:09:28;5.20;62.50
50758;DHT22;36732;47.980;11.652;2023-03-02T07:11:55;5.20;62.50
50758;DHT22;36732;47.980;11.652;2023-03-02T07:14:21;5.20;62.50
50758;DHT22;36732;47.980;11.652;2023-03-02T07:16:47;5.20;62.60
50758;DHT22;36732;47.980;11.652;2023-03-02T07:19:12;5.20;62.60
50758;DHT22;36732;47.980;11.652;2023-03-02T07:21:38;5.20;62.60
50758;DHT22;36732;47.980;11.652;2023-03-02T07:24:05;5.20;62.60
50758;DHT22;36732;47.980;11.652;2023-03-02T07:26:31;5.20;62.60
50758;DHT22;36732;47.980;11.652;2023-03-02T07:28:56;5.30;62.70
50758;DHT22;36732;47.980;11.652;2023-03-02T07:31:24;5.30;62.70
50758;DHT22;36732;47.980;11.652;2023-03-02T07:33:50;5.30;63.40
50758;DHT22;36732;47.980;11.652;2023-03-02T07:36:16;5.30;62.70
50758;DHT22;36732;47.980;11.652;2023-03-02T07:38:41;5.30;62.70
50758;DHT22;36732;47.980;11.652;2023-03-02T07:41:08;5.30;62.70
50758;DHT22;36732;47.980;11.652;2023-03-02T07:43:34;5.30;62.70
50758;DHT22;36732;47.980;11.652;2023-03-02T07:46:02;5.30;62.70
50758;DHT22;36732;47.980;11.652;2023-03-02T07:48:29;5.30;62.70
50758;DHT22;36732;47.980;11.652;2023-03-02T07:51:03;5.30;62.70
50758;DHT22;36732;47.980;11.652;2023-03-02T07:53:30;5.30;62.80
50758;DHT22;36732;47.980;11.652;2023-03-02T07:55:56;5.30;62.70
50758;DHT22;36732;47.980;11.652;2023-03-02T07:58:22;5.30;62.70
50758;DHT22;36732;47.980;11.652;2023-03-02T08:00:49;5.40;62.80
50758;DHT22;36732;47.980;11.652;2023-03-02T08:03:15;5.30;62.70
50758;DHT22;36732;47.980;11.652;2023-03-02T08:05:40;5.40;62.80
50758;DHT22;36732;47.980;11.652;2023-03-02T08:08:06;5.40;62.80
50758;DHT22;36732;47.980;11.652;2023-03-02T08:10:35;5.40;62.80
50758;DHT22;36732;47.980;11.652;2023-03-02T08:13:01;5.40;62.90
50758;DHT22;36732;47.980;11.652;2023-03-02T08:15:27;5.40;62.90
50758;DHT22;36732;47.980;11.652;2023-03-02T08:17:53;5.40;62.90
50758;DHT22;36732;47.980;11.652;2023-03-02T08:20:18;5.40;62.90
50758;DHT22;36732;47.980;11.652;2023-03-02T08:22:44;5.40;62.90
50758;DHT22;36732;47.980;11.652;2023-03-02T08:25:10;5.50;62.90
50758;DHT22;36732;47.980;11.652;2023-03-02T08:27:35;5.50;62.90
50758;DHT22;36732;47.980;11.652;2023-03-02T08:30:02;5.50;63.00
50758;DHT22;36732;47.980;11.652;2023-03-02T08:32:28;5.50;63.00
50758;DHT22;36732;47.980;11.652;2023-03-02T08:34:54;5.50;63.00
50758;DHT22;36732;47.980;11.652;2023-03-02T08:37:20;5.50;63.00
50758;DHT22;36732;47.980;11.652;2023-03-02T08:39:45;5.50;63.00
50758;DHT22;36732;47.980;11.652;2023-03-02T08:42:11;5.50;62.90
50758;DHT22;36732;47.980;11.652;2023-03-02T08:44:37;5.50;62.90
50758;DHT22;36732;47.980;11.652;2023-03-02T08:47:03;5.60;63.00
50758;DHT22;36732;47.980;11.652;2023-03-02T08:49:28;5.60;62.90
50758;DHT22;36732;47.980;11.652;2023-03-02T08:51:54;5.60;62.90
50758;DHT22;36732;47.980;11.652;2023-03-02T08:54:21;5.60;62.80
50758;DHT22;36732;47.980;11.652;2023-03-02T08:56:47;5.60;62.80
50758;DHT22;36732;47.980;11.652;2023-03-02T08:59:14;5.60;62.80
50758;DHT22;36732;47.980;11.652;2023-03-02T09:01:40;5.60;62.80
50758;DHT22;36732;47.980;11.652;2023-03-02T09:04:07;5.70;62.80
50758;DHT22;36732;47.980;11.652;2023-03-02T09:06:39;5.70;62.70
50758;DHT22;36732;47.980;11.652;2023-03-02T09:09:07;5.70;62.70
50758;DHT22;36732;47.980;11.652;2023-03-02T09:11:34;5.70;62.70
50758;DHT22;36732;47.980;11.652;2023-03-02T09:14:00;5.70;62.70
50758;DHT22;36732;47.980;11.652;2023-03-02T09:16:26;5.70;62.70
50758;DHT22;36732;47.980;11.652;2023-03-02T09:18:52;5.70;62.80
50758;DHT22;36732;47.980;11.652;2023-03-02T09:21:19;5.70;62.80
50758;DHT22;36732;47.980;11.652;2023-03-02T09:23:45;5.70;62.80
50758;DHT22;36732;47.980;11.652;2023-03-02T09:26:11;5.70;62.80
50758;DHT22;36732;47.980;11.652;2023-03-02T09:28:37;5.80;62.90
50758;DHT22;36732;47.980;11.652;2023-03-02T09:31:06;5.80;62.80
50758;DHT22;36732;47.980;11.652;2023-03-02T09:33:32;5.80;62.60
50758;DHT22;36732;47.980;11.652;2023-03-02T09:35:58;5.80;62.60
50758;DHT22;36732;47.980;11.652;2023-03-02T09:38:25;5.80;62.50
50758;DHT22;36732;47.980;11.652;2023-03-02T09:52:31;5.90;62.50
50758;DHT22;36732;47.980;11.652;2023-03-02T09:55:13;5.90;62.50
50758;DHT22;36732;47.980;11.652;2023-03-02T09:57:42;5.90;62.50
50758;DHT22;36732;47.980;11.652;2023-03-02T10:00:12;5.90;62.40
50758;DHT22;36732;47.980;11.652;2023-03-02T10:02:45;5.90;62.50
50758;DHT22;36732;47.980;11.652;2023-03-02T10:05:33;5.90;62.40
50758;DHT22;36732;47.980;11.652;2023-03-02T10:08:03;5.90;62.50
50758;DHT22;36732;47.980;11.652;2023-03-02T10:10:44;5.90;62.40
50758;DHT22;36732;47.980;11.652;2023-03-02T10:16:08;5.90;62.40
50758;DHT22;36732;47.980;11.652;2023-03-02T10:19:30;5.90;62.50
50758;DHT22;36732;47.980;11.652;2023-03-02T10:21:44;5.90;62.50
50758;DHT22;36732;47.980;11.652;2023-03-02T10:27:25;5.90;62.60
50758;DHT22;36732;47.980;11.652;2023-03-02T10:30:23;6.00;62.60
50758;DHT22;36732;47.980;11.652;2023-03-02T10:32:58;6.00;62.60
50758;DHT22;36732;47.980;11.652;2023-03-02T10:35:27;6.00;62.50
50758;DHT22;36732;47.980;11.652;2023-03-02T10:38:11;6.00;62.60
50758;DHT22;36732;47.980;11.652;2023-03-02T10:43:36;5.90;62.70
50758;DHT22;36732;47.980;11.652;2023-03-02T10:46:08;5.90;62.90
50758;DHT22;36732;47.980;11.652;2023-03-02T10:48:53;5.90;62.80
50758;DHT22;36732;47.980;11.652;2023-03-02T10:56:29;5.90;63.20
50758;DHT22;36732;47.980;11.652;2023-03-02T10:58:55;6.00;63.10
50758;DHT22;36732;47.980;11.652;2023-03-02T11:01:28;6.00;63.10
50758;DHT22;36732;47.980;11.652;2023-03-02T11:04:00;6.00;63.20
50758;DHT22;36732;47.980;11.652;2023-03-02T11:06:27;6.00;63.40
50758;DHT22;36732;47.980;11.652;2023-03-02T11:09:01;6.00;63.30
50758;DHT22;36732;47.980;11.652;2023-03-02T11:11:29;6.00;63.40
50758;DHT22;36732;47.980;11.652;2023-03-02T11:13:55;6.00;63.40
50758;DHT22;36732;47.980;11.652;2023-03-02T11:16:22;6.00;63.40
50758;DHT22;36732;47.980;11.652;2023-03-02T11:19:06;6.00;63.50
50758;DHT22;36732;47.980;11.652;2023-03-02T11:21:40;6.00;63.90
50758;DHT22;36732;47.980;11.652;2023-03-02T11:24:17;6.00;63.80
50758;DHT22;36732;47.980;11.652;2023-03-02T11:26:51;6.00;63.90
50758;DHT22;36732;47.980;11.652;2023-03-02T11:29:37;6.10;63.90
50758;DHT22;36732;47.980;11.652;2023-03-02T11:32:19;6.10;63.90
50758;DHT22;36732;47.980;11.652;2023-03-02T11:35:13;6.10;64.70
50758;DHT22;36732;47.980;11.652;2023-03-02T11:37:52;6.10;64.50
50758;DHT22;36732;47.980;11.652;2023-03-02T11:40:35;6.10;64.30
50758;DHT22;36732;47.980;11.652;2023-03-02T11:43:10;6.10;64.40
50758;DHT22;36732;47.980;11.652;2023-03-02T11:45:45;6.10;64.20
50758;DHT22;36732;47.980;11.652;2023-03-02T11:48:23;6.20;64.60
50758;DHT22;36732;47.980;11.652;2023-03-02T11:51:02;6.20;64.70
50758;DHT22;36732;47.980;11.652;2023-03-02T11:56:21;6.20;64.80
50758;DHT22;36732;47.980;11.652;2023-03-02T11:58:53;6.20;64.40
50758;DHT22;36732;47.980;11.652;2023-03-02T12:01:23;6.20;64.50
50758;DHT22;36732;47.980;11.652;2023-03-02T12:03:51;6.20;64.60
50758;DHT22;36732;47.980;11.652;2023-03-02T12:09:09;6.30;64.60
50758;DHT22;36732;47.980;11.652;2023-03-02T12:11:38;6.30;64.60
50758;DHT22;36732;47.980;11.652;2023-03-02T12:17:21;6.30;65.10
50758;DHT22;36732;47.980;11.652;2023-03-02T12:22:51;6.30;65.20
50758;DHT22;36732;47.980;11.652;2023-03-02T12:27:48;6.40;65.10
50758;DHT22;36732;47.980;11.652;2023-03-02T12:32:44;6.40;65.10
50758;DHT22;36732;47.980;11.652;2023-03-02T12:35:14;6.40;65.20
50758;DHT22;36732;47.980;11.652;2023-03-02T12:38:03;6.40;65.20
50758;DHT22;36732;47.980;11.652;2023-03-02T12:43:33;6.40;65.20
50758;DHT22;36732;47.980;11.652;2023-03-02T12:46:18;6.40;65.30
50758;DHT22;36732;47.980;11.652;2023-03-02T12:48:51;6.50;65.40
50758;DHT22;36732;47.980;11.652;2023-03-02T12:51:22;6.50;65.70
50758;DHT22;36732;47.980;11.652;2023-03-02T12:54:11;6.50;65.90
50758;DHT22;36732;47.980;11.652;2023-03-02T12:56:38;6.50;66.30
50758;DHT22;36732;47.980;11.652;2023-03-02T12:59:04;6.50;65.90
50758;DHT22;36732;47.980;11.652;2023-03-02T13:01:32;6.50;66.00
50758;DHT22;36732;47.980;11.652;2023-03-02T13:03:58;6.50;66.30
50758;DHT22;36732;47.980;11.652;2023-03-02T13:06:28;6.50;66.30
50758;DHT22;36732;47.980;11.652;2023-03-02T13:08:57;6.60;66.50
50758;DHT22;36732;47.980;11.652;2023-03-02T13:11:27;6.60;66.40
50758;DHT22;36732;47.980;11.652;2023-03-02T13:13:59;6.60;66.60
50758;DHT22;36732;47.980;11.652;2023-03-02T13:16:26;6.60;66.40
50758;DHT22;36732;47.980;11.652;2023-03-02T13:18:56;6.60;66.50
50758;DHT22;36732;47.980;11.652;2023-03-02T13:21:29;6.60;66.70
50758;DHT22;36732;47.980;11.652;2023-03-02T13:23:57;6.60;67.00
50758;DHT22;36732;47.980;11.652;2023-03-02T13:26:29;6.60;66.80
50758;DHT22;36732;47.980;11.652;2023-03-02T13:29:04;6.60;66.80
50758;DHT22;36732;47.980;11.652;2023-03-02T13:31:33;6.60;67.10
50758;DHT22;36732;47.980;11.652;2023-03-02T13:33:59;6.70;67.10
50758;DHT22;36732;47.980;11.652;2023-03-02T13:36:35;6.70;67.00
50758;DHT22;36732;47.980;11.652;2023-03-02T13:39:04;6.70;67.50
50758;DHT22;36732;47.980;11.652;2023-03-02T13:41:34;6.70;67.00
50758;DHT22;36732;47.980;11.652;2023-03-02T13:44:16;6.70;67.20
50758;DHT22;36732;47.980;11.652;2023-03-02T13:46:44;6.70;67.50
50758;DHT22;36732;47.980;11.652;2023-03-02T13:49:10;6.70;67.10
50758;DHT22;36732;47.980;11.652;2023-03-02T13:51:41;6.70;67.40
50758;DHT22;36732;47.980;11.652;2023-03-02T13:54:41;6.70;67.20
50758;DHT22;36732;47.980;11.652;2023-03-02T13:57:17;6.70;67.70
50758;DHT22;36732;47.980;11.652;2023-03-02T13:59:53;6.70;67.50
50758;DHT22;36732;47.980;11.652;2023-03-02T14:02:26;6.70;67.20
50758;DHT22;36732;47.980;11.652;2023-03-02T14:04:53;6.70;67.30
50758;DHT22;36732;47.980;11.652;2023-03-02T14:07:19;6.80;67.20
50758;DHT22;36732;47.980;11.652;2023-03-02T14:09:46;6.80;67.10
50758;DHT22;36732;47.980;11.652;2023-03-02T14:12:32;6.80;67.20
50758;DHT22;36732;47.980;11.652;2023-03-02T14:15:00;6.80;67.50
50758;DHT22;36732;47.980;11.652;2023-03-02T14:17:28;6.70;67.20
50758;DHT22;36732;47.980;11.652;2023-03-02T14:19:54;6.80;67.40
50758;DHT22;36732;47.980;11.652;2023-03-02T14:22:21;6.80;67.40
50758;DHT22;36732;47.980;11.652;2023-03-02T14:24:48;6.80;67.40
50758;DHT22;36732;47.980;11.652;2023-03-02T14:27:15;6.80;67.50
50758;DHT22;36732;47.980;11.652;2023-03-02T14:29:43;6.80;67.50
50758;DHT22;36732;47.980;11.652;2023-03-02T14:32:11;6.80;67.70
50758;DHT22;36732;47.980;11.652;2023-03-02T14:34:39;6.80;67.60
50758;DHT22;36732;47.980;11.652;2023-03-02T14:37:07;6.80;67.50
50758;DHT22;36732;47.980;11.652;2023-03-02T14:42:14;6.80;67.60
50758;DHT22;36732;47.980;11.652;2023-03-02T14:44:42;6.80;67.80
50758;DHT22;36732;47.980;11.652;2023-03-02T14:47:09;6.80;67.60
50758;DHT22;36732;47.980;11.652;2023-03-02T14:49:35;6.90;67.50
50758;DHT22;36732;47.980;11.652;2023-03-02T14:52:07;6.90;67.50
50758;DHT22;36732;47.980;11.652;2023-03-02T14:57:23;6.90;68.10
50758;DHT22;36732;47.980;11.652;2023-03-02T14:59:51;6.90;67.30
50758;DHT22;36732;47.980;11.652;2023-03-02T15:02:19;6.90;67.20
50758;DHT22;36732;47.980;11.652;2023-03-02T15:04:46;6.90;67.10
50758;DHT22;36732;47.980;11.652;2023-03-02T15:07:13;6.90;67.00
50758;DHT22;36732;47.980;11.652;2023-03-02T15:09:42;6.90;66.90
50758;DHT22;36732;47.980;11.652;2023-03-02T15:12:09;6.90;66.90
50758;DHT22;36732;47.980;11.652;2023-03-02T15:14:35;6.90;66.80
50758;DHT22;36732;47.980;11.652;2023-03-02T15:17:01;6.90;66.70
50758;DHT22;36732;47.980;11.652;2023-03-02T15:19:27;6.90;66.60
50758;DHT22;36732;47.980;11.652;2023-03-02T15:21:53;6.90;66.50
50758;DHT22;36732;47.980;11.652;2023-03-02T15:24:19;6.90;66.50
50758;DHT22;36732;47.980;11.652;2023-03-02T15:26:49;6.90;66.40
50758;DHT22;36732;47.980;11.652;2023-03-02T15:29:16;6.90;66.40
50758;DHT22;36732;47.980;11.652;2023-03-02T15:31:42;6.90;66.30
50758;DHT22;36732;47.980;11.652;2023-03-02T15:34:07;6.90;66.30
50758;DHT22;36732;47.980;11.652;2023-03-02T15:36:33;6.90;66.30
50758;DHT22;36732;47.980;11.652;2023-03-02T15:38:59;6.90;66.20
50758;DHT22;36732;47.980;11.652;2023-03-02T15:41:25;6.90;66.20
50758;DHT22;36732;47.980;11.652;2023-03-02T15:43:52;6.90;66.20
50758;DHT22;36732;47.980;11.652;2023-03-02T15:46:21;6.90;66.10
50758;DHT22;36732;47.980;11.652;2023-03-02T15:48:48;6.90;66.20
50758;DHT22;36732;47.980;11.652;2023-03-02T15:51:16;6.90;66.20
50758;DHT22;36732;47.980;11.652;2023-03-02T15:53:42;6.90;66.10
50758;DHT22;36732;47.980;11.652;2023-03-02T15:56:14;6.90;66.00
50758;DHT22;36732;47.980;11.652;2023-03-02T15:58:45;6.90;66.00
50758;DHT22;36732;47.980;11.652;2023-03-02T16:01:12;7.00;66.00
50758;DHT22;36732;47.980;11.652;2023-03-02T16:03:41;7.00;65.90
50758;DHT22;36732;47.980;11.652;2023-03-02T16:06:07;7.00;65.80
50758;DHT22;36732;47.980;11.652;2023-03-02T16:08:34;7.00;65.80
50758;DHT22;36732;47.980;11.652;2023-03-02T16:11:03;7.00;65.70
50758;DHT22;36732;47.980;11.652;2023-03-02T16:13:30;7.00;65.70
50758;DHT22;36732;47.980;11.652;2023-03-02T16:15:56;7.00;65.60
50758;DHT22;36732;47.980;11.652;2023-03-02T16:18:24;7.00;65.60
50758;DHT22;36732;47.980;11.652;2023-03-02T16:20:50;6.90;65.40
50758;DHT22;36732;47.980;11.652;2023-03-02T16:23:16;6.90;65.40
50758;DHT22;36732;47.980;11.652;2023-03-02T16:25:42;6.90;65.30
50758;DHT22;36732;47.980;11.652;2023-03-02T16:28:10;6.90;65.30
50758;DHT22;36732;47.980;11.652;2023-03-02T16:30:36;6.90;65.20
50758;DHT22;36732;47.980;11.652;2023-03-02T16:33:04;6.90;65.20
50758;DHT22;36732;47.980;11.652;2023-03-02T16:35:33;6.90;65.10
50758;DHT22;36732;47.980;11.652;2023-03-02T16:37:59;6.90;65.10
50758;DHT22;36732;47.980;11.652;2023-03-02T16:40:25;6.90;65.00
50758;DHT22;36732;47.980;11.652;2023-03-02T16:42:51;6.90;65.00